Latest Weather Observations for Milingimbi

IDD60801

Issued at 10:01 pm CST Friday 29 May 2015 (issued every 30 minutes, with the page automatically refreshed every 10 minutes)

About weather observations | Map of weather stations | Latest weather observations for NT | Other Formats
Station Details ID: 014404 Name: MILINGIMBI AIRPORT Lat: -12.09 Lon: 134.89 Height: 15.0 m
Data from the previous 72 hours. | See also: Recent months at Milingimbi
Date/Time
CST
Temp
°C
App
Temp
°C
Dew
Point
Rel
Hum
%
Delta-T
°C
Wind Press
QNH
hPa
Press
MSL
hPa
Rain
since 9 am
mm
Dir
 
Spd
km/h
Gust
km/h
Spd
kts
Gust
kts
29/10:00pm 27.2 30.5 22.6 76 3.1 ESE 9 13 5 7 1014.5 - 0.0
29/09:30pm 27.4 30.7 22.6 75 3.2 E 9 15 5 8 1014.3 - 0.0
29/09:00pm 27.5 30.4 22.4 73 3.4 E 11 20 6 11 1013.9 1013.8 0.0
29/08:30pm 27.7 29.4 22.4 73 3.6 ESE 17 22 9 12 1013.2 - 0.0
29/08:00pm 27.8 30.1 22.1 71 3.8 SE 13 20 7 11 1012.5 - 0.0
29/07:30pm 28.0 29.4 22.5 72 3.7 SE 19 24 10 13 1012.2 - 0.0
29/07:00pm 28.2 29.0 22.4 71 3.9 SE 22 30 12 16 1012.1 - 0.0
29/06:30pm 28.3 29.4 22.3 70 4.1 ESE 20 30 11 16 1012.0 - 0.0
29/06:00pm 28.3 30.4 22.5 71 3.9 ESE 15 20 8 11 1012.1 1012.0 0.0
29/05:30pm 28.5 31.0 22.5 70 4.1 ESE 13 20 7 11 1011.6 - 0.0
29/05:00pm 28.7 30.6 22.7 70 4.1 ESE 17 24 9 13 1011.7 - 0.0
29/04:30pm 28.9 30.3 22.6 69 4.3 ESE 19 28 10 15 1011.4 - 0.0
29/04:00pm 28.9 31.3 22.9 70 4.1 ESE 15 20 8 11 1011.5 - 0.0
29/03:30pm 29.4 31.6 22.6 67 4.6 ESE 15 20 8 11 1011.1 - 0.0
29/03:00pm 29.5 32.3 23.0 68 4.5 SE 13 19 7 10 1011.0 1010.9 0.0
29/02:30pm 29.0 32.3 23.2 71 4.0 ESE 11 17 6 9 1011.4 - 0.0
29/02:00pm 28.6 31.3 22.8 71 3.9 E 13 20 7 11 1012.4 - 0.0
29/01:30pm 28.6 30.3 22.3 68 4.3 E 17 22 9 12 1012.8 - 0.0
29/01:00pm 28.8 31.6 22.3 68 4.4 E 11 17 6 9 1013.1 - 0.0
29/12:30pm 28.9 31.8 23.1 71 4.0 E 13 19 7 10 1013.5 - 0.0
29/12:00pm 28.2 30.8 22.7 72 3.7 ESE 13 19 7 10 1013.9 1013.8 0.0
29/11:30am 28.4 30.2 22.6 71 3.9 SE 17 22 9 12 1013.9 - 0.0
29/11:00am 28.2 29.4 22.2 70 4.0 SE 19 26 10 14 1013.9 - 0.0
29/10:30am 27.7 29.3 22.2 72 3.7 SE 17 24 9 13 1014.1 - 0.0
29/10:00am 27.1 29.1 22.3 75 3.2 SE 15 22 8 12 1014.2 - 0.0
29/09:30am 26.3 28.3 22.2 78 2.8 SE 15 20 8 11 1014.2 - 0.0
29/09:00am 25.9 27.4 22.0 79 2.6 SSE 17 28 9 15 1014.2 1014.1 0.0
29/08:30am 25.7 27.2 22.0 80 2.5 SE 17 20 9 11 1014.2 - 0.0
29/08:00am 25.3 26.8 22.0 82 2.2 SE 17 24 9 13 1013.9 - 0.0
29/07:30am 25.1 27.4 22.0 83 2.1 SSE 13 20 7 11 1013.4 - 0.0
29/07:00am 25.0 26.9 22.1 84 1.9 SSE 15 22 8 12 1012.9 - 0.0
29/06:30am 25.0 26.4 21.9 83 2.1 SE 17 26 9 14 1012.2 - 0.0
29/06:00am 25.0 26.4 21.9 83 2.1 SSE 17 22 9 12 1012.0 1011.9 0.0
29/05:30am 25.2 27.0 21.9 82 2.2 SSE 15 30 8 16 1011.6 - 0.0
29/05:00am 25.1 26.9 21.8 82 2.2 S 15 22 8 12 1011.1 - 0.0
29/04:30am 25.3 26.7 21.8 81 2.3 SSE 17 22 9 12 1011.3 - 0.0
29/04:00am 25.2 27.0 21.9 82 2.2 SSE 15 20 8 11 1011.7 - 0.0
29/03:30am 25.3 26.4 22.0 82 2.2 SSE 19 24 10 13 1011.7 - 0.0
29/03:00am 25.3 26.8 22.0 82 2.2 SSE 17 20 9 11 1012.2 1012.1 0.0
29/02:30am 25.5 26.6 22.0 81 2.3 SSE 19 28 10 15 1012.4 - 0.0
29/02:00am 25.8 28.0 21.9 79 2.6 SSE 13 20 7 11 1012.7 - 0.0
29/01:30am 25.7 27.1 21.8 79 2.6 SSE 17 20 9 11 1012.9 - 0.0
29/01:00am 25.8 27.5 21.7 78 2.7 S 15 22 8 12 1013.1 - 0.0
29/12:30am 26.0 28.3 21.4 76 3.1 SSE 11 17 6 9 1013.6 - 0.0
29/12:00am 26.1 28.5 21.5 76 3.1 SE 11 15 6 8 1013.6 1013.5 0.0
 
Date/Time
CST
Temp
°C
App
Temp
°C
Dew
Point
Rel
Hum
%
Delta-T
°C
Wind Press
QNH
hPa
Press
MSL
hPa
Rain
since 9 am
mm
Dir
 
Spd
km/h
Gust
km/h
Spd
kts
Gust
kts
28/11:30pm 26.1 27.7 21.5 76 3.1 SSE 15 20 8 11 1013.9 - 0.0
28/11:00pm 26.3 27.9 21.5 75 3.2 SE 15 19 8 10 1013.7 - 0.0
28/10:30pm 26.5 28.0 21.3 73 3.5 SE 15 20 8 11 1013.6 - 0.0
28/10:00pm 26.8 27.4 21.1 71 3.8 SE 19 24 10 13 1013.6 - 0.0
28/09:30pm 27.2 27.5 21.5 71 3.8 SE 22 35 12 19 1013.6 - 0.0
28/09:00pm 27.4 27.8 21.0 68 4.2 SE 20 28 11 15 1013.5 1013.4 0.0
28/08:30pm 27.8 28.8 21.1 67 4.4 SE 17 22 9 12 1013.0 - 0.0
28/08:00pm 28.5 29.5 21.8 67 4.5 SE 19 26 10 14 1012.8 - 0.0
28/07:30pm 29.0 29.8 21.7 64 4.9 SE 20 30 11 16 1012.4 - 0.0
28/07:00pm 29.1 31.8 22.1 66 4.7 ESE 11 20 6 11 1012.0 - 0.0
28/06:30pm 29.2 32.3 21.4 63 5.2 E 7 11 4 6 1011.6 - 0.0
28/06:00pm 29.9 32.8 21.0 59 5.9 E 7 9 4 5 1011.2 1011.1 0.0
28/05:30pm 30.1 32.5 20.9 57 6.1 E 9 11 5 6 1010.9 - 0.0
28/05:00pm 31.0 33.3 20.6 54 6.9 E 9 15 5 8 1010.7 - 0.0
28/04:30pm 31.1 33.1 20.7 54 6.9 E 11 15 6 8 1010.6 - 0.0
28/04:00pm 32.1 33.7 20.7 51 7.6 ESE 13 20 7 11 1010.6 - 0.0
28/03:30pm 31.8 33.0 20.7 51 7.4 E 15 20 8 11 1010.8 - 0.0
28/03:00pm 31.4 32.3 20.0 50 7.5 ESE 15 22 8 12 1010.8 1010.7 0.0
28/02:30pm 32.3 32.9 20.2 48 8.0 ESE 17 24 9 13 1011.2 - 0.0
28/02:00pm 31.4 32.4 21.0 54 7.0 E 17 24 9 13 1011.5 - 0.0
28/01:30pm 30.8 32.3 21.3 57 6.4 ESE 15 24 8 13 1012.1 - 0.0
28/01:00pm 30.6 31.8 21.4 58 6.2 ESE 17 28 9 15 1012.5 - 0.0
28/12:30pm 30.5 31.4 21.6 59 6.0 ESE 19 26 10 14 1013.0 - 0.0
28/12:00pm 29.6 30.8 21.5 61 5.4 ESE 17 26 9 14 1013.4 1013.3 0.0
28/11:30am 28.9 30.2 21.7 65 4.8 ESE 17 26 9 14 1013.8 - 0.0
28/11:00am 28.4 28.8 21.7 67 4.5 ESE 22 30 12 16 1014.1 - 0.0
28/10:30am 28.3 29.0 21.6 67 4.5 SE 20 28 11 15 1014.4 - 0.0
28/10:00am 27.5 28.9 21.8 71 3.8 ESE 17 28 9 15 1014.6 - 0.0
28/09:30am 27.3 28.1 21.8 72 3.7 SE 20 32 11 17 1014.8 - 0.0
28/09:00am 25.6 26.4 21.3 77 2.8 SE 19 28 10 15 1014.6 1014.5 0.0
28/08:30am 24.6 26.6 21.5 83 2.1 SSE 13 19 7 10 1014.4 - 0.0
28/08:00am 23.5 26.2 21.4 88 1.4 SSE 9 13 5 7 1014.0 - 0.0
28/07:30am 22.8 25.3 21.1 90 1.1 SSE 9 15 5 8 1013.6 - 0.0
28/07:00am 22.9 25.1 21.2 90 1.1 SSE 11 17 6 9 1013.3 - 0.0
28/06:30am 23.0 24.5 21.3 90 1.1 SSE 15 19 8 10 1012.9 - 0.0
28/06:00am 23.0 25.2 21.1 89 1.2 SE 11 15 6 8 1012.7 1012.6 0.0
28/05:30am 23.4 25.7 21.3 88 1.4 SSE 11 15 6 8 1012.5 - 0.0
28/05:00am 23.9 25.3 21.8 88 1.4 SE 17 24 9 13 1012.2 - 0.0
28/04:30am 23.3 25.6 21.4 89 1.3 SE 11 17 6 9 1012.2 - 0.0
28/04:00am 23.4 25.4 21.5 89 1.3 SE 13 17 7 9 1012.2 - 0.0
28/03:30am 23.6 25.6 21.5 88 1.4 SSE 13 17 7 9 1012.1 - 0.0
28/03:00am 23.7 26.0 21.4 87 1.5 SE 11 17 6 9 1012.5 1012.4 0.0
28/02:30am 23.9 26.2 21.4 86 1.6 SSE 11 15 6 8 1012.5 - 0.0
28/02:00am 24.2 26.5 21.3 84 1.9 SSE 11 15 6 8 1012.9 - 0.0
28/01:30am 24.9 26.9 21.6 82 2.2 SE 13 20 7 11 1013.0 - 0.0
28/01:00am 25.3 27.2 22.0 82 2.2 SE 15 26 8 14 1013.3 - 0.0
28/12:30am 25.6 27.8 21.9 80 2.5 ESE 13 19 7 10 1013.4 - 0.0
28/12:00am 25.9 27.4 22.0 79 2.6 ESE 17 26 9 14 1013.5 1013.4 0.0
 
Date/Time
CST
Temp
°C
App
Temp
°C
Dew
Point
Rel
Hum
%
Delta-T
°C
Wind Press
QNH
hPa
Press
MSL
hPa
Rain
since 9 am
mm
Dir
 
Spd
km/h
Gust
km/h
Spd
kts
Gust
kts
27/11:30pm 26.1 27.6 22.0 78 2.7 ESE 17 20 9 11 1013.7 - 0.0
27/11:00pm 26.5 27.8 21.7 75 3.2 ESE 17 26 9 14 1013.7 - 0.0
27/10:30pm 27.0 28.3 21.7 73 3.5 ESE 17 26 9 14 1013.7 - 0.0
27/10:00pm 27.6 29.4 21.9 71 3.8 ESE 15 24 8 13 1013.7 - 0.0
27/09:30pm 27.6 29.9 21.4 69 4.1 E 11 17 6 9 1013.5 - 0.0
27/09:00pm 27.9 30.5 21.2 67 4.5 E 9 13 5 7 1013.3 1013.2 0.0
27/08:30pm 28.0 30.5 21.8 69 4.2 E 11 19 6 10 1013.1 - 0.0
27/08:00pm 28.0 30.8 21.5 67 4.3 E 9 13 5 7 1012.9 - 0.0
27/07:30pm 28.0 30.8 21.5 67 4.3 E 9 15 5 8 1012.6 - 0.0
27/07:00pm 28.0 30.5 21.8 69 4.2 E 11 15 6 8 1012.4 - 0.0
27/06:30pm 28.3 30.7 21.6 67 4.5 E 11 19 6 10 1012.0 - 0.0
27/06:00pm 28.6 30.8 21.9 67 4.5 E 13 20 7 11 1011.7 1011.6 0.0
27/05:30pm 29.0 31.7 22.2 66 4.6 E 11 17 6 9 1011.4 - 0.0
27/05:00pm 28.8 32.4 23.0 71 4.0 ENE 9 15 5 8 1011.1 - 0.0
27/04:30pm 28.6 31.7 22.8 71 3.9 ENE 11 17 6 9 1010.9 - 0.0
27/04:00pm 28.6 31.7 22.8 71 3.9 ENE 11 19 6 10 1011.0 - 0.0
27/03:30pm 28.3 31.5 23.0 73 3.6 NE 11 20 6 11 1011.0 - 0.0
27/03:00pm 28.7 31.7 23.4 73 3.6 NE 13 20 7 11 1011.2 1011.1 0.0
27/02:30pm 29.7 31.3 20.8 58 5.9 E 13 22 7 12 1011.4 - 0.0
27/02:00pm 30.8 32.0 20.7 55 6.7 E 15 24 8 13 1011.7 - 0.0
27/01:30pm 32.5 33.3 20.7 49 7.9 E 17 30 9 16 1012.2 - 0.0
27/01:00pm 31.6 31.0 20.5 51 7.4 SE 24 32 13 17 1012.8 - 0.0
27/12:30pm 31.5 31.4 20.8 53 7.1 ESE 22 32 12 17 1013.3 - 0.0
27/12:00pm 31.2 31.5 20.8 54 6.9 ESE 20 32 11 17 1013.9 1013.8 0.0
27/11:30am 30.9 31.4 21.1 56 6.6 ESE 20 28 11 15 1014.4 - 0.0
27/11:00am 29.9 29.5 20.2 56 6.4 SE 22 32 12 17 1014.8 - 0.0
27/10:30am 29.4 28.6 20.0 57 6.2 ESE 24 37 13 20 1014.9 - 0.0
27/10:00am 28.9 28.0 20.6 61 5.5 SE 26 32 14 17 1015.1 - 0.0
27/09:30am 27.7 27.9 20.5 65 4.7 SE 20 28 11 15 1014.9 - 0.0
27/09:00am 27.0 27.3 20.3 66 4.4 SE 19 26 10 14 1014.7 1014.6 0.0
27/08:30am 25.3 26.4 21.2 78 2.7 SE 17 22 9 12 1014.5 - 0.0
27/08:00am 24.3 25.8 21.2 83 2.0 SSE 15 20 8 11 1014.2 - 0.0
27/07:30am 23.7 26.0 21.4 87 1.5 SSE 11 19 6 10 1013.8 - 0.0
27/07:00am 22.8 24.7 21.4 92 0.9 SSE 13 17 7 9 1013.4 - 0.0
27/06:30am 22.8 25.1 21.4 92 0.9 SSE 11 15 6 8 1013.1 - 0.0
27/06:00am 22.8 25.1 21.4 92 0.9 S 11 17 6 9 1013.2 1013.1 0.0
27/05:30am 22.9 25.7 21.5 92 0.9 SSE 9 13 5 7 1013.4 - 0.0
27/05:00am 23.1 25.5 21.5 91 1.1 SSE 11 15 6 8 1013.1 - 0.0
27/04:30am 23.5 25.3 21.8 90 1.1 SE 15 19 8 10 1013.0 - 0.0
27/04:00am 23.5 25.7 21.8 90 1.1 SSE 13 17 7 9 1013.1 - 0.0
27/03:30am 23.6 26.0 21.5 88 1.4 SSE 11 15 6 8 1013.2 - 0.0
27/03:00am 23.6 26.3 21.3 87 1.5 SSE 9 15 5 8 1013.6 1013.5 0.0
27/02:30am 23.7 26.3 21.2 86 1.6 SSE 9 13 5 7 1014.1 - 0.0
27/02:00am 24.1 26.7 21.2 84 1.9 S 9 11 5 6 1014.3 - 0.0
27/01:30am 24.6 27.0 21.5 83 2.1 SSE 11 15 6 8 1014.7 - 0.0
27/01:00am 25.0 27.5 21.7 82 2.2 SE 11 15 6 8 1014.9 - 0.0
27/12:30am 25.2 27.2 21.5 80 2.5 SSE 13 17 7 9 1015.1 - 0.0
27/12:00am 26.1 27.0 22.0 78 2.7 ESE 20 30 11 16 1015.2 1015.1 0.0
 
Date/Time
CST
Temp
°C
App
Temp
°C
Dew
Point
Rel
Hum
%
Delta-T
°C
Wind Press
QNH
hPa
Press
MSL
hPa
Rain
since 9 am
mm
Dir
 
Spd
km/h
Gust
km/h
Spd
kts
Gust
kts
26/11:30pm 26.4 27.2 21.8 76 3.1 ESE 20 30 11 16 1015.5 - 0.0
26/11:00pm 26.4 28.6 21.8 76 3.1 ESE 13 20 7 11 1015.5 - 0.0
26/10:30pm 26.2 28.3 21.0 73 3.4 SE 11 17 6 9 1015.5 - 0.0

Other Formats:

Comma delimited format used in spreadsheet applications
http://www.bom.gov.au/fwo/IDD60801/IDD60801.94140.axf

JavaScript Object Notation format (JSON) in row-major order
http://www.bom.gov.au/fwo/IDD60801/IDD60801.94140.json